Terminal Aerodrome Forecast
Issued by NWS

Home | Current Version | Previous Version | Text Only | Print | Product List | Glossary On
Versions: 1 2 3 4 5 6 7 8 9 10 11 12 13 14
000
FTUS46 KLOX 301700 RRA
TAFSBA
TAF
KSBA 301743Z 3018/3118 20005KT P6SM BKN150
     FM302000 22008KT P6SM SCT050 SCT150 BKN200
     FM310300 VRB03KT P6SM OVC100
     FM310900 09006KT P6SM BKN015 OVC150=

USA.gov is the U.S. government's official web portal to all federal, state and local government web resources and services.